createdAt,value
2022-12-09T00:03:58.134Z,101082.13
2022-12-09T00:09:21.958Z,101095.16
2022-12-09T00:14:51.204Z,101091.19
2022-12-09T00:20:21.439Z,101085.38
2022-12-09T00:25:48.048Z,101094.41
2022-12-09T00:31:15.008Z,101091.44
2022-12-09T00:36:45.545Z,101090.19
2022-12-09T00:42:14.175Z,101071.44
2022-12-09T00:47:39.765Z,101068.09
2022-12-09T00:53:05.459Z,101062.25
2022-12-09T00:58:31.687Z,101058.13
2022-12-09T01:04:03.080Z,101050.47
2022-12-09T01:09:36.304Z,101049.19
2022-12-09T01:15:07.548Z,101047.56
2022-12-09T01:20:36.291Z,101043.59
2022-12-09T01:26:08.079Z,101043.28
2022-12-09T01:31:33.117Z,101036.31
2022-12-09T01:37:05.180Z,101043.75
2022-12-09T01:42:30.415Z,101043.44
2022-12-09T01:48:04.746Z,101043.09
2022-12-09T01:53:39.301Z,101031.78
2022-12-09T01:59:08.291Z,101035.00
2022-12-09T02:04:35.961Z,101031.16
2022-12-09T02:09:59.985Z,101043.09
2022-12-09T02:15:46.145Z,101051.38
2022-12-09T02:21:15.444Z,101046.69
2022-12-09T02:26:49.773Z,101042.00
2022-12-09T02:32:39.949Z,101037.50
2022-12-09T02:38:12.569Z,101042.00
2022-12-09T02:43:49.944Z,101036.31
2022-12-09T02:49:26.370Z,101037.31
2022-12-09T02:54:58.030Z,101039.66
2022-12-09T03:00:22.243Z,101037.97
2022-12-09T03:05:54.091Z,101044.00
2022-12-09T03:11:26.527Z,101038.97
2022-12-09T03:17:02.009Z,101042.00
2022-12-09T03:22:29.633Z,101040.66
2022-12-09T03:28:04.173Z,101022.88
2022-12-09T03:33:29.522Z,101036.97
2022-12-09T03:39:02.213Z,101024.22
2022-12-09T03:44:33.693Z,101014.16
2022-12-09T03:49:57.617Z,100996.97
2022-12-09T03:55:30.064Z,101000.34
2022-12-09T04:00:55.221Z,100998.41
2022-12-09T04:06:18.967Z,100992.88
2022-12-09T04:11:43.567Z,100986.03
2022-12-09T10:20:15.242Z,100873.22
2022-12-09T10:25:48.941Z,100869.53
2022-12-09T10:31:18.790Z,100866.88
2022-12-09T10:36:50.064Z,100859.84
2022-12-09T10:42:35.043Z,100861.84
2022-12-09T10:47:59.583Z,100863.84
2022-12-09T10:53:29.912Z,100856.97
2022-12-09T10:59:10.790Z,100851.47
2022-12-09T11:04:37.322Z,100849.78
2022-12-09T11:10:20.756Z,100828.78
2022-12-09T11:15:47.065Z,100827.94
2022-12-09T11:21:31.822Z,100838.88
2022-12-09T11:27:01.932Z,100831.97
2022-12-09T11:32:30.777Z,100830.47
2022-12-09T11:38:01.598Z,100825.09
2022-12-09T11:43:37.710Z,100828.63
2022-12-09T11:49:13.820Z,100830.31
2022-12-09T11:54:48.840Z,100829.97
2022-12-09T12:00:22.735Z,100808.81
2022-12-09T12:05:55.163Z,100800.94
2022-12-09T12:11:29.772Z,100811.84
2022-12-09T12:16:58.585Z,100814.53
2022-12-09T12:22:42.104Z,100800.09
2022-12-09T12:28:23.158Z,100810.13
2022-12-09T12:34:22.865Z,100804.09
2022-12-09T12:39:52.622Z,100797.38
2022-12-09T12:45:39.809Z,100786.66
2022-12-09T12:51:21.317Z,100788.00
2022-12-09T12:56:55.305Z,100786.84
2022-12-09T13:02:36.680Z,100789.69
2022-12-09T13:08:11.517Z,100770.53
2022-12-09T13:13:39.864Z,100772.22
2022-12-09T13:19:08.107Z,100772.53
2022-12-09T13:24:44.422Z,100767.19
2022-12-09T13:30:20.640Z,100758.94
2022-12-09T13:35:54.922Z,100770.88
2022-12-09T13:42:02.577Z,100757.63
2022-12-09T13:47:37.559Z,100766.84
2022-12-09T13:53:23.097Z,100748.41
2022-12-09T13:59:43.345Z,100751.25
2022-12-09T17:37:18.386Z,100682.63
2022-12-09T17:42:44.934Z,100681.09
2022-12-09T17:48:12.076Z,100676.22
2022-12-09T17:53:43.903Z,100677.25
2022-12-09T17:59:10.838Z,100689.66
2022-12-09T18:04:41.202Z,100694.34
2022-12-09T18:10:07.585Z,100689.00
2022-12-09T18:15:31.070Z,100685.44
2022-12-09T18:21:01.719Z,100686.63
2022-12-09T18:26:38.120Z,100683.25
2022-12-09T18:32:10.741Z,100672.38
2022-12-09T18:37:40.153Z,100692.34
2022-12-09T18:43:07.185Z,100682.63
2022-12-09T18:48:31.937Z,100697.03
2022-12-09T18:54:02.114Z,100695.16
2022-12-09T18:59:35.443Z,100680.22
2022-12-09T19:05:03.933Z,100678.22
2022-12-09T19:10:37.164Z,100670.16
2022-12-09T19:16:06.326Z,100682.25
2022-12-09T19:21:39.655Z,100680.22
2022-12-09T19:27:03.665Z,100690.94
2022-12-09T19:32:52.467Z,100674.84
2022-12-09T19:38:15.511Z,100678.00
2022-12-09T19:43:40.043Z,100673.78
2022-12-09T19:49:05.850Z,100678.50
2022-12-09T19:54:31.396Z,100668.75
2022-12-09T19:59:55.464Z,100685.19
2022-12-09T20:05:20.041Z,100682.81
2022-12-09T20:10:49.442Z,100691.22
2022-12-09T20:16:09.987Z,100689.19
2022-12-09T20:21:39.723Z,100688.19
2022-12-09T20:27:02.839Z,100697.09
2022-12-09T20:32:34.598Z,100690.38
2022-12-09T20:38:06.653Z,100691.22
2022-12-09T20:43:39.366Z,100686.03
2022-12-09T20:54:56.096Z,100683.16
2022-12-09T21:00:24.711Z,100686.19
2022-12-09T21:05:57.993Z,100685.19
2022-12-09T21:11:25.009Z,100692.91
2022-12-09T21:17:00.643Z,100685.50
2022-12-09T21:22:23.865Z,100685.13
2022-12-09T21:27:33.707Z,100687.00
2022-12-09T21:33:00.510Z,100681.44
2022-12-09T21:38:24.982Z,100690.00
2022-12-09T21:43:42.564Z,100686.81
2022-12-09T21:49:07.480Z,100686.09
2022-12-09T21:54:39.777Z,100688.47
2022-12-09T22:00:09.013Z,100689.97
2022-12-09T22:05:34.867Z,100688.13
2022-12-09T22:10:45.905Z,100688.81
2022-12-09T22:16:14.992Z,100688.81
2022-12-09T22:22:09.033Z,100700.56
2022-12-09T22:27:35.265Z,100693.50
2022-12-09T22:33:01.829Z,100695.19
2022-12-09T22:38:25.829Z,100688.06
2022-12-09T22:43:53.217Z,100685.75
2022-12-09T22:49:19.413Z,100689.81
2022-12-09T22:54:48.175Z,100689.63
2022-12-09T23:00:13.006Z,100689.63
2022-12-09T23:05:46.087Z,64992.06
2022-12-09T23:11:15.543Z,100689.63
2022-12-09T23:16:44.719Z,64992.06
2022-12-09T23:22:11.163Z,64992.06
2022-12-09T23:27:40.174Z,64992.06
2022-12-09T23:33:09.071Z,64992.06
2022-12-09T23:38:39.177Z,64992.06
2022-12-09T23:44:10.912Z,64992.06
2022-12-09T23:49:36.326Z,64992.06
2022-12-09T23:55:08.109Z,64992.06
